Time;durP1;ratioP1;P1;durP2;ratioP2;P2;SDS_P1;SDS_P2;PMS_P1;PMS_P2;Temp;Humidity;BMP_temperature;BMP_pressure;BME280_temperature;BME280_humidity;BME280_pressure;Samples;Min_cycle;Max_cycle;Signal;HPM_P1;HPM_P2
2022/01/20 05:12:19;;;;;;;50.90;20.08;;;;;;;-3.43;100.00;100657.25;5564841;32;158493;-84
2022/01/20 05:15:24;;;;;;;49.50;19.52;;;;;;;-3.47;100.00;100658.03;5549372;32;34398;-84
2022/01/20 05:18:28;;;;;;;41.63;19.15;;;;;;;-3.48;100.00;100655.44;5551506;32;33993;-84
2022/01/20 05:21:31;;;;;;;42.22;19.52;;;;;;;-3.47;100.00;100642.47;5551980;32;34162;-84
2022/01/20 05:24:34;;;;;;;41.63;18.60;;;;;;;-3.43;100.00;100657.25;5548298;32;34620;-85
2022/01/20 05:27:39;;;;;;;43.47;19.90;;;;;;;-3.43;100.00;100654.63;5545333;32;34411;-85
2022/01/20 05:30:41;;;;;;;44.05;19.55;;;;;;;-3.42;100.00;100664.16;5545358;32;34404;-84
2022/01/20 05:33:46;;;;;;;45.38;19.45;;;;;;;-3.44;100.00;100663.28;5547145;32;33605;-84
2022/01/20 05:36:49;;;;;;;47.10;19.75;;;;;;;-3.50;100.00;100655.41;5548334;32;33767;-84
2022/01/20 05:39:51;;;;;;;48.00;20.20;;;;;;;-3.47;100.00;100652.00;5548487;32;33721;-84
2022/01/20 05:42:56;;;;;;;42.83;19.15;;;;;;;-3.36;100.00;100634.84;5550505;32;34069;-84
2022/01/20 05:45:59;;;;;;;43.30;18.92;;;;;;;-3.49;100.00;100636.41;5552876;32;34827;-84
2022/01/20 05:49:08;;;;;;;42.10;19.15;;;;;;;-3.49;100.00;100643.31;5548099;32;34735;-84
2022/01/20 05:52:12;;;;;;;39.50;19.60;;;;;;;-3.36;100.00;100642.62;5552241;32;33767;-84
2022/01/20 05:55:20;;;;;;;44.67;20.17;;;;;;;-3.25;100.00;100646.22;5553402;32;33896;-84
2022/01/20 05:58:23;;;;;;;52.47;20.50;;;;;;;-3.07;100.00;100639.47;5551357;32;34070;-84
2022/01/20 06:01:27;;;;;;;39.25;20.33;;;;;;;-3.07;100.00;100636.03;5547372;32;33552;-85
2022/01/20 06:04:31;;;;;;;49.90;21.92;;;;;;;-3.18;100.00;100617.75;5530924;32;34322;-85
2022/01/20 06:07:34;;;;;;;51.40;22.52;;;;;;;-3.25;100.00;100627.19;5528981;32;33211;-85
2022/01/20 06:10:38;;;;;;;46.47;21.50;;;;;;;-3.26;100.00;100626.28;5535826;32;33787;-85
2022/01/20 06:13:42;;;;;;;47.90;22.00;;;;;;;-3.34;100.00;100627.06;5549470;32;35045;-85
2022/01/20 06:16:45;;;;;;;46.60;21.33;;;;;;;-3.29;100.00;100621.09;5540720;32;33931;-85
2022/01/20 06:19:49;;;;;;;42.03;20.73;;;;;;;-3.36;100.00;100621.00;5551168;32;33761;-85
2022/01/20 06:22:52;;;;;;;47.72;19.90;;;;;;;-3.44;100.00;100619.19;5530851;32;34054;-85
2022/01/20 06:25:55;;;;;;;48.53;20.58;;;;;;;-3.37;100.00;100619.25;5533304;32;34476;-85
2022/01/20 06:28:57;;;;;;;50.65;21.23;;;;;;;-3.18;100.00;100616.00;5535036;32;33806;-85
2022/01/20 06:32:00;;;;;;;47.90;20.48;;;;;;;-3.18;100.00;100622.94;5526005;32;33403;-85
2022/01/20 06:35:04;;;;;;;43.40;20.40;;;;;;;-3.20;100.00;100622.91;5532964;32;34411;-86
2022/01/20 06:38:07;;;;;;;44.20;19.90;;;;;;;-3.13;100.00;100629.03;5532536;32;33948;-86
2022/01/20 06:41:10;;;;;;;41.50;20.12;;;;;;;-2.99;100.00;100637.84;5513060;32;34706;-86
2022/01/20 06:44:13;;;;;;;35.80;19.98;;;;;;;-2.86;100.00;100631.03;5517020;32;34100;-86
2022/01/20 06:47:16;;;;;;;40.28;19.98;;;;;;;-2.63;100.00;100626.91;5531921;32;35283;-86
2022/01/20 06:50:19;;;;;;;39.70;18.08;;;;;;;-2.50;100.00;100633.09;5536246;32;35124;-86
2022/01/20 06:53:22;;;;;;;37.88;18.62;;;;;;;-2.13;100.00;100632.47;5534666;32;34339;-86
2022/01/20 06:56:25;;;;;;;39.80;18.70;;;;;;;-1.82;98.83;100636.16;5532319;32;34282;-83
2022/01/20 06:59:41;;;;;;;38.97;18.37;;;;;;;-1.57;97.70;100627.63;5517249;32;33473;-85
2022/01/20 07:02:45;;;;;;;43.50;18.08;;;;;;;-1.44;96.76;100618.09;5518891;32;35339;-83
2022/01/20 07:05:48;;;;;;;36.60;17.05;;;;;;;-1.31;96.15;100612.06;5515577;32;34415;-84
2022/01/20 07:08:51;;;;;;;33.67;16.35;;;;;;;-0.90;94.10;100604.38;5514720;32;34680;-84
2022/01/20 07:11:54;;;;;;;31.52;16.48;;;;;;;-0.87;93.71;100610.44;5518183;32;33807;-83
2022/01/20 07:14:57;;;;;;;34.30;15.35;;;;;;;-0.64;92.65;100606.13;5525113;32;33742;-83
2022/01/20 07:18:00;;;;;;;34.72;16.08;;;;;;;-0.46;91.11;100611.31;5531294;32;33860;-84
2022/01/20 07:21:03;;;;;;;34.25;15.68;;;;;;;-0.32;90.48;100598.28;5525304;32;34831;-84
2022/01/20 07:24:07;;;;;;;27.40;14.70;;;;;;;-0.10;89.22;100598.25;5521113;32;34188;-83
2022/01/20 07:27:10;;;;;;;34.10;16.30;;;;;;;0.03;88.25;100585.16;5525273;32;33780;-83
2022/01/20 07:30:13;;;;;;;35.97;17.37;;;;;;;0.09;87.53;100587.75;5530312;32;34079;-83
2022/01/20 07:33:19;;;;;;;35.88;18.50;;;;;;;0.08;86.82;100580.81;5519856;32;34798;-83
2022/01/20 07:36:23;;;;;;;39.90;18.25;;;;;;;-0.02;87.34;100585.19;5526149;32;34609;-83
2022/01/20 07:39:26;;;;;;;41.55;19.15;;;;;;;-0.26;88.28;100588.72;5526565;32;33519;-83
2022/01/20 07:42:29;;;;;;;38.22;18.23;;;;;;;-0.30;88.61;100586.09;5519148;32;34345;-83
2022/01/20 07:45:31;;;;;;;38.38;18.75;;;;;;;-0.19;89.04;100585.22;5519100;32;33740;-83
2022/01/20 07:48:36;;;;;;;40.97;18.75;;;;;;;-0.07;87.62;100574.78;5517189;32;33927;-83
2022/01/20 07:51:40;;;;;;;40.10;19.58;;;;;;;-0.11;87.20;100583.47;5518916;32;34123;-83
2022/01/20 07:54:43;;;;;;;41.72;20.37;;;;;;;0.05;86.52;100571.25;5513137;32;33316;-83
2022/01/20 07:57:46;;;;;;;45.45;20.05;;;;;;;-0.03;86.59;100570.41;5526961;32;34086;-83
2022/01/20 08:00:51;;;;;;;36.85;19.65;;;;;;;0.06;86.23;100574.75;5519319;32;34360;-83
2022/01/20 08:03:54;;;;;;;40.10;20.00;;;;;;;0.47;85.02;100572.84;5522580;32;34542;-83
2022/01/20 08:06:57;;;;;;;41.88;18.75;;;;;;;0.74;84.08;100574.44;5532104;32;34384;-83
2022/01/20 08:10:00;;;;;;;37.67;18.37;;;;;;;1.00;82.75;100570.78;5531493;32;33902;-83
2022/01/20 08:13:05;;;;;;;37.58;18.10;;;;;;;1.37;82.06;100574.00;5515156;32;34107;-83
2022/01/20 08:16:08;;;;;;;35.00;18.20;;;;;;;1.81;79.66;100574.47;5532186;32;34607;-83
2022/01/20 08:19:11;;;;;;;32.72;16.58;;;;;;;2.22;78.70;100585.38;5532845;32;34056;-83
2022/01/20 08:22:14;;;;;;;36.05;17.65;;;;;;;2.46;76.01;100575.47;5532526;32;34725;-83
2022/01/20 08:25:36;;;;;;;33.83;17.70;;;;;;;2.23;76.14;100567.03;5529115;32;33743;-83
2022/01/20 08:28:42;;;;;;;33.15;16.80;;;;;;;2.13;76.00;100565.41;5513565;32;34477;-84
2022/01/20 08:31:47;;;;;;;34.20;17.75;;;;;;;1.90;77.52;100568.28;5513477;32;34416;-84
2022/01/20 08:34:53;;;;;;;42.78;19.87;;;;;;;1.69;78.80;100572.84;5527001;32;32807;-84
2022/01/20 08:37:59;;;;;;;37.65;18.77;;;;;;;1.66;80.08;100572.87;5527392;32;34168;-84
2022/01/20 08:41:03;;;;;;;43.50;19.37;;;;;;;1.57;80.18;100577.28;5519447;32;33780;-86
2022/01/20 08:44:05;;;;;;;36.22;19.58;;;;;;;1.72;79.58;100578.91;5517693;32;33879;-88
2022/01/20 08:47:15;;;;;;;35.80;19.25;;;;;;;1.64;79.50;100572.00;5516900;32;35013;-89
2022/01/20 08:50:19;;;;;;;41.90;19.55;;;;;;;1.70;79.81;100564.97;5611308;26;34195;-86
2022/01/20 08:53:22;;;;;;;37.13;20.05;;;;;;;1.83;79.36;100557.88;5554553;32;35228;-87
2022/01/20 08:56:27;;;;;;;42.17;19.37;;;;;;;1.90;79.25;100557.81;5543168;32;35288;-88
2022/01/20 08:59:31;;;;;;;36.03;19.65;;;;;;;2.03;78.34;100554.19;5542285;32;34863;-87
2022/01/20 09:02:36;;;;;;;35.42;19.37;;;;;;;2.10;77.96;100568.03;5554476;32;33638;-89
2022/01/20 09:05:39;;;;;;;37.47;20.60;;;;;;;2.20;77.63;100567.06;5544220;32;33967;-88
2022/01/20 09:08:42;;;;;;;42.50;20.60;;;;;;;2.34;77.43;100582.59;5536477;32;34685;-87
2022/01/20 09:12:04;;;;;;;41.60;20.60;;;;;;;2.49;76.88;100578.06;5547219;32;34409;-87
2022/01/20 09:15:28;;;;;;;43.25;21.45;;;;;;;2.16;76.91;100575.81;5557725;32;33959;-88
2022/01/20 09:18:32;;;;;;;38.10;19.90;;;;;;;1.96;78.89;100589.16;5559220;32;35162;-87
2022/01/20 09:21:36;;;;;;;28.40;13.05;;;;;;;2.28;77.65;100585.28;5546174;32;35075;-86
2022/01/20 09:24:39;;;;;;;15.75;8.50;;;;;;;2.63;78.10;100589.22;5544157;32;34205;-85
2022/01/20 09:27:42;;;;;;;16.75;8.32;;;;;;;3.00;77.21;100579.09;5555261;32;34767;-87
2022/01/20 09:30:46;;;;;;;13.18;8.15;;;;;;;3.08;77.01;100569.37;5553552;32;33828;-91
2022/01/20 09:33:51;;;;;;;18.23;9.68;;;;;;;3.13;76.69;100574.53;5536138;32;35176;-91
2022/01/20 09:36:54;;;;;;;15.70;8.70;;;;;;;3.08;77.25;100579.84;5551204;32;34138;-90
2022/01/20 09:39:57;;;;;;;15.75;8.95;;;;;;;3.09;77.22;100571.97;5553665;32;33631;-84
2022/01/20 09:43:01;;;;;;;16.02;9.10;;;;;;;3.29;77.63;100564.66;5544666;32;34452;-85
2022/01/20 09:46:07;;;;;;;14.60;9.20;;;;;;;3.35;77.67;100564.56;5599024;26;34035;-85
2022/01/20 09:49:13;;;;;;;15.52;8.60;;;;;;;3.28;78.51;100574.31;5579256;32;34024;-85
2022/01/20 09:52:16;;;;;;;13.80;8.90;;;;;;;3.49;77.11;100580.06;5570897;32;34950;-86
2022/01/20 09:55:21;;;;;;;13.50;8.30;;;;;;;3.17;79.79;100582.31;5565979;32;34005;-89
2022/01/20 09:58:24;;;;;;;16.95;8.93;;;;;;;3.31;80.20;100578.59;5564964;32;34958;-87
2022/01/20 10:01:58;;;;;;;15.48;9.15;;;;;;;3.29;81.43;100576.03;5557648;32;33947;-89
2022/01/20 10:05:03;;;;;;;19.02;8.70;;;;;;;3.43;82.48;100573.19;5560638;32;33485;-89
2022/01/20 10:08:14;;;;;;;14.65;7.93;;;;;;;4.99;84.17;100556.94;5560425;32;33788;-88
2022/01/20 10:11:19;;;;;;;18.83;8.70;;;;;;;4.91;79.11;100565.00;5559025;32;33970;-88
2022/01/20 10:14:22;;;;;;;18.85;9.38;;;;;;;4.96;78.80;100554.38;5555669;32;34972;-89
2022/01/20 10:17:31;;;;;;;14.68;8.98;;;;;;;4.40;80.19;100555.63;5554210;32;34053;-88
2022/01/20 10:20:35;;;;;;;13.73;8.18;;;;;;;4.09;82.48;100544.00;5559014;31;34766;-86
2022/01/20 10:23:47;;;;;;;11.27;7.43;;;;;;;3.76;84.88;100541.09;5580816;31;35156;-86
2022/01/20 10:26:51;;;;;;;13.45;7.03;;;;;;;3.72;85.46;100545.56;5579230;31;33705;-86
2022/01/20 10:30:05;;;;;;;11.73;6.60;;;;;;;3.37;88.68;100529.56;5567918;32;34156;-87
2022/01/20 10:33:09;;;;;;;10.60;6.68;;;;;;;3.37;89.54;100531.34;5561657;31;34527;-86
2022/01/20 10:36:13;;;;;;;10.07;5.93;;;;;;;3.34;89.85;100524.38;5562744;32;34487;-86
2022/01/20 10:39:17;;;;;;;8.82;6.30;;;;;;;3.20;91.24;100523.72;5568526;31;33551;-86
2022/01/20 10:42:24;;;;;;;11.55;6.35;;;;;;;3.14;92.36;100518.59;5569545;32;34282;-86
2022/01/20 10:45:29;;;;;;;9.25;6.00;;;;;;;3.04;93.22;100515.25;5564996;31;33706;-87
2022/01/20 10:48:33;;;;;;;10.30;5.57;;;;;;;3.13;92.64;100517.75;5564415;31;33945;-90
2022/01/20 10:51:37;;;;;;;8.20;5.93;;;;;;;2.97;93.83;100506.66;5564949;32;33989;-91
2022/01/20 10:54:43;;;;;;;8.25;5.20;;;;;;;3.06;93.00;100493.38;5562395;32;34342;-87
2022/01/20 10:57:46;;;;;;;8.82;5.35;;;;;;;3.15;92.11;100486.22;5557576;32;34441;-86
2022/01/20 11:00:55;;;;;;;10.90;5.05;;;;;;;3.29;93.35;100488.63;5556308;31;34067;-86
2022/01/20 11:03:59;;;;;;;9.13;5.43;;;;;;;2.94;93.45;100488.34;5560587;31;32629;-86
2022/01/20 11:07:05;;;;;;;6.75;4.95;;;;;;;3.29;91.66;100463.28;5563187;31;34637;-87
2022/01/20 11:10:16;;;;;;;8.00;5.53;;;;;;;3.55;90.08;100455.81;5572361;32;33945;-87
2022/01/20 11:13:20;;;;;;;9.40;5.30;;;;;;;3.72;89.28;100452.88;5573486;32;34107;-88
2022/01/20 11:16:23;;;;;;;10.13;5.43;;;;;;;3.75;88.88;100445.81;5571623;32;34782;-88
2022/01/20 11:19:31;;;;;;;6.65;5.22;;;;;;;3.81;87.66;100451.81;5558684;32;34003;-88
2022/01/20 11:22:34;;;;;;;7.68;5.00;;;;;;;3.87;87.08;100449.06;5569131;32;33734;-88
2022/01/20 11:25:41;;;;;;;11.48;5.55;;;;;;;3.71;87.63;100444.13;5564468;32;34009;-88
2022/01/20 11:29:00;;;;;;;8.77;5.43;;;;;;;3.76;88.07;100430.91;5574675;32;35354;-86
2022/01/20 11:32:16;;;;;;;7.10;5.12;;;;;;;3.81;87.71;100430.84;5571938;32;34114;-86
2022/01/20 11:35:21;;;;;;;8.98;5.40;;;;;;;3.76;85.87;100423.03;5566658;31;34531;-86
2022/01/20 11:38:48;;;;;;;7.75;5.55;;;;;;;3.93;85.77;100421.81;5579580;31;34991;-87
2022/01/20 11:41:52;;;;;;;12.88;5.87;;;;;;;4.14;86.09;100404.75;5561891;32;34281;-87
2022/01/20 11:44:55;;;;;;;10.07;5.82;;;;;;;4.35;84.65;100403.37;5566676;32;35070;-87
2022/01/20 11:48:10;;;;;;;11.73;6.03;;;;;;;4.77;81.23;100394.47;5555570;32;34283;-86
2022/01/20 11:51:13;;;;;;;8.25;5.18;;;;;;;4.45;81.34;100388.25;5568839;32;34298;-90
2022/01/20 11:54:30;;;;;;;9.30;5.80;;;;;;;4.23;81.38;100373.00;5555547;32;34694;-91
2022/01/20 11:57:33;;;;;;;8.20;5.20;;;;;;;4.11;83.12;100373.28;5563277;32;33998;-87
2022/01/20 12:00:35;;;;;;;6.05;4.25;;;;;;;4.08;81.93;100384.75;5560613;32;34754;-87
2022/01/20 12:03:50;;;;;;;9.35;5.10;;;;;;;4.04;80.23;100364.72;5562619;32;34095;-86
2022/01/20 12:06:53;;;;;;;9.98;5.65;;;;;;;4.08;80.77;100360.25;5557569;32;34116;-89
2022/01/20 12:10:16;;;;;;;9.23;5.60;;;;;;;4.06;81.63;100362.91;5570358;31;33942;-88
2022/01/20 12:13:19;;;;;;;7.50;5.10;;;;;;;4.08;81.20;100365.50;5553430;32;32611;-87
2022/01/20 12:16:23;;;;;;;11.12;6.37;;;;;;;4.10;82.27;100354.06;5567258;32;33954;-86
2022/01/20 12:19:27;;;;;;;9.07;5.72;;;;;;;4.36;81.15;100347.31;5573801;32;34700;-87
2022/01/20 12:22:30;;;;;;;9.77;5.82;;;;;;;4.44;81.00;100353.25;5571510;31;33958;-87
2022/01/20 12:25:36;;;;;;;7.45;5.28;;;;;;;4.56;79.20;100348.59;5565104;31;34220;-87
2022/01/20 12:28:43;;;;;;;8.27;5.80;;;;;;;4.29;78.41;100348.38;5573819;31;34915;-87
2022/01/20 12:31:56;;;;;;;7.32;4.80;;;;;;;4.52;78.48;100354.84;5559369;32;33668;-87
2022/01/20 12:35:01;;;;;;;8.45;5.45;;;;;;;4.56;77.68;100344.19;5565378;31;34236;-87
2022/01/20 12:38:30;;;;;;;9.52;5.28;;;;;;;4.71;77.16;100345.56;5570402;31;33977;-87
2022/01/20 12:41:33;;;;;;;9.60;5.80;;;;;;;4.89;76.14;100326.72;5572905;31;34063;-85
2022/01/20 12:45:02;;;;;;;9.15;5.65;;;;;;;5.14;75.37;100334.81;5583045;31;33909;-85
2022/01/20 12:48:16;;;;;;;12.00;5.93;;;;;;;5.21;74.29;100330.22;5579414;31;33854;-91
2022/01/20 12:51:28;;;;;;;8.57;5.82;;;;;;;5.12;73.68;100316.44;5580607;31;33664;-87
2022/01/20 12:54:33;;;;;;;10.93;6.10;;;;;;;4.95;74.66;100305.53;5566911;31;34051;-87
2022/01/20 12:57:36;;;;;;;9.05;5.70;;;;;;;4.89;74.90;100305.69;5560415;32;34334;-86
2022/01/20 13:00:39;;;;;;;10.32;5.80;;;;;;;4.88;73.41;100312.72;5558188;32;34224;-86
2022/01/20 13:03:42;;;;;;;9.70;5.70;;;;;;;4.94;73.21;100290.66;5577036;31;34572;-86
2022/01/20 13:07:01;;;;;;;10.25;5.82;;;;;;;4.90;73.49;100286.38;5557444;32;34849;-86
2022/01/20 13:10:21;;;;;;;7.90;5.25;;;;;;;4.72;73.87;100296.50;5573209;31;34065;-86
2022/01/20 13:13:24;;;;;;;12.27;5.78;;;;;;;4.81;73.15;100298.00;5574343;31;33908;-88
2022/01/20 13:16:27;;;;;;;10.48;5.00;;;;;;;4.65;74.06;100294.94;5590854;31;35361;-87
2022/01/20 13:19:34;;;;;;;10.30;5.20;;;;;;;4.81;72.97;100301.53;5580280;31;35215;-85
2022/01/20 13:22:43;;;;;;;9.20;5.57;;;;;;;4.65;72.84;100282.69;5562608;32;34968;-86
2022/01/20 13:25:46;;;;;;;6.50;4.97;;;;;;;4.49;74.16;100276.09;5564730;32;35266;-86
2022/01/20 13:29:04;;;;;;;6.40;5.10;;;;;;;4.36;73.23;100271.16;5589166;31;34454;-87
2022/01/20 13:32:17;;;;;;;8.23;4.87;;;;;;;4.60;72.49;100260.91;5576487;31;35157;-88
2022/01/20 13:35:20;;;;;;;5.97;4.62;;;;;;;4.61;71.56;100249.50;5577911;31;33884;-87
2022/01/20 13:38:37;;;;;;;7.45;5.18;;;;;;;4.42;71.72;100244.72;5575134;31;34063;-86
2022/01/20 13:41:43;;;;;;;11.48;4.70;;;;;;;4.50;72.25;100244.53;5576743;31;34599;-88
2022/01/20 13:45:13;;;;;;;7.05;4.55;;;;;;;4.68;71.30;100247.56;5558607;32;32739;-85
2022/01/20 13:48:26;;;;;;;6.65;5.18;;;;;;;4.72;69.65;100241.31;5567113;32;33972;-87
2022/01/20 13:51:31;;;;;;;9.63;5.07;;;;;;;4.61;70.19;100220.59;5583097;31;34859;-87
2022/01/20 13:54:40;;;;;;;7.37;4.82;;;;;;;4.56;69.96;100233.00;5562031;32;35398;-86
2022/01/20 13:58:05;;;;;;;5.53;4.15;;;;;;;4.57;69.33;100229.44;5578014;31;33928;-87
2022/01/20 14:01:09;;;;;;;8.82;4.15;;;;;;;4.39;69.49;100234.31;5571120;31;34566;-86
2022/01/20 14:04:14;;;;;;;5.45;4.00;;;;;;;4.34;69.17;100238.81;5565389;32;33592;-86
2022/01/20 14:07:18;;;;;;;7.53;3.83;;;;;;;4.44;68.11;100234.19;5583427;31;33973;-87
2022/01/20 14:10:22;;;;;;;5.35;3.80;;;;;;;4.41;67.49;100206.25;5596471;31;34187;-86
2022/01/20 14:13:25;;;;;;;5.35;3.33;;;;;;;4.25;68.40;100221.53;5581934;31;33536;-86
2022/01/20 14:16:32;;;;;;;9.02;3.83;;;;;;;4.05;68.20;100219.41;5588132;31;33819;-86
2022/01/20 14:19:40;;;;;;;6.45;3.92;;;;;;;4.19;67.89;100211.19;5587203;31;34137;-86
2022/01/20 14:22:44;;;;;;;6.93;4.20;;;;;;;4.24;67.52;100213.69;5569229;32;34205;-86
2022/01/20 14:25:48;;;;;;;6.28;3.67;;;;;;;4.17;68.37;100208.59;5567312;31;33883;-86
2022/01/20 14:28:51;;;;;;;9.45;4.80;;;;;;;4.06;69.61;100201.91;5571902;31;34657;-85
2022/01/20 14:31:53;;;;;;;8.68;4.72;;;;;;;3.93;70.54;100191.72;5590832;31;33853;-85
2022/01/20 14:34:57;;;;;;;8.60;4.85;;;;;;;3.89;70.90;100187.44;5567485;31;34154;-84
2022/01/20 14:38:00;;;;;;;7.53;4.72;;;;;;;3.84;71.61;100182.31;5575332;31;34544;-85
2022/01/20 14:41:03;;;;;;;10.48;5.57;;;;;;;3.75;71.74;100187.78;5555257;32;34081;-85
2022/01/20 14:44:06;;;;;;;6.90;4.37;;;;;;;3.70;71.93;100187.03;5562624;31;34072;-84
2022/01/20 14:47:09;;;;;;;7.35;4.68;;;;;;;3.57;72.10;100181.22;5557904;32;36460;-85
2022/01/20 14:50:12;;;;;;;8.23;5.05;;;;;;;3.60;71.47;100187.25;5557441;32;34788;-87
2022/01/20 14:53:15;;;;;;;8.00;4.32;;;;;;;3.61;70.92;100173.25;5555033;32;33987;-86
2022/01/20 14:56:19;;;;;;;7.40;4.35;;;;;;;3.65;70.70;100189.78;5557838;32;34597;-87
2022/01/20 14:59:26;;;;;;;7.53;4.57;;;;;;;3.74;70.19;100163.31;5558226;32;33994;-85
2022/01/20 15:02:29;;;;;;;8.18;4.55;;;;;;;3.68;70.17;100162.59;5558218;32;34278;-86
2022/01/20 15:05:32;;;;;;;9.48;4.50;;;;;;;3.50;70.32;100160.41;5556813;32;35037;-89
2022/01/20 15:08:35;;;;;;;7.68;4.40;;;;;;;3.62;69.37;100171.50;5567974;31;34111;-89
2022/01/20 15:11:40;;;;;;;8.35;4.60;;;;;;;3.70;69.30;100173.91;5584335;31;34156;-87
2022/01/20 15:14:42;;;;;;;9.98;4.07;;;;;;;3.63;69.36;100175.84;5564025;32;32833;-84
2022/01/20 15:17:46;;;;;;;6.75;4.18;;;;;;;3.64;69.63;100165.28;5571751;32;34387;-84
2022/01/20 15:20:49;;;;;;;6.22;4.12;;;;;;;3.51;69.96;100166.47;5579812;32;34225;-84
2022/01/20 15:23:52;;;;;;;7.82;4.07;;;;;;;3.56;69.26;100161.16;5566305;32;34035;-85
2022/01/20 15:26:55;;;;;;;6.03;3.85;;;;;;;3.46;69.56;100163.09;5562682;32;34421;-84
2022/01/20 15:29:58;;;;;;;7.07;4.20;;;;;;;3.66;70.39;100174.91;5552507;32;33441;-84
2022/01/20 15:33:16;;;;;;;5.35;3.67;;;;;;;3.78;68.56;100198.22;5552944;32;33879;-83
2022/01/20 15:36:19;;;;;;;9.65;3.40;;;;;;;3.70;68.87;100250.87;5556557;32;34586;-83
2022/01/20 15:39:22;;;;;;;4.03;2.40;;;;;;;3.34;76.28;100290.12;5555629;32;34420;-84
2022/01/20 15:42:26;;;;;;;3.15;1.90;;;;;;;2.94;82.29;100324.13;5556261;32;35118;-84
2022/01/20 15:45:29;;;;;;;1.65;1.10;;;;;;;2.36;86.49;100355.66;5555585;32;34814;-84
2022/01/20 15:48:34;;;;;;;0.82;0.80;;;;;;;2.11;90.21;100387.44;5572586;31;33754;-84
2022/01/20 15:51:37;;;;;;;2.70;1.05;;;;;;;1.25;95.60;100392.87;5582298;31;33807;-85
2022/01/20 15:54:40;;;;;;;1.10;0.77;;;;;;;0.67;100.00;100403.03;5572835;31;33711;-85
2022/01/20 15:57:43;;;;;;;2.12;0.90;;;;;;;0.51;100.00;100381.41;5575689;31;33872;-84
2022/01/20 16:00:47;;;;;;;3.75;1.45;;;;;;;-0.02;100.00;100376.53;5592901;31;34047;-83
2022/01/20 16:03:50;;;;;;;1.58;1.30;;;;;;;-0.09;100.00;100375.72;5555593;32;34417;-83
2022/01/20 16:06:53;;;;;;;2.70;1.58;;;;;;;-0.18;100.00;100386.19;5573667;31;34271;-84
2022/01/20 16:09:55;;;;;;;3.15;1.70;;;;;;;-0.16;100.00;100407.88;5575228;32;33688;-84
2022/01/20 16:12:59;;;;;;;1.70;1.30;;;;;;;-0.20;100.00;100419.22;5575846;32;34302;-84
2022/01/20 16:16:01;;;;;;;4.72;1.52;;;;;;;-0.19;100.00;100411.38;5576259;32;35321;-84
2022/01/20 16:19:07;;;;;;;2.50;1.48;;;;;;;-0.16;100.00;100403.56;5578371;32;34412;-84
2022/01/20 16:22:10;;;;;;;1.80;1.65;;;;;;;-0.17;100.00;100414.88;5582927;32;33851;-84
2022/01/20 16:25:16;;;;;;;1.75;1.65;;;;;;;-0.06;100.00;100408.72;5580881;32;34898;-84
2022/01/20 16:28:19;;;;;;;4.18;2.10;;;;;;;-0.09;99.90;100411.34;5576008;32;34104;-84
2022/01/20 16:31:21;;;;;;;2.92;1.83;;;;;;;-0.07;99.83;100389.59;5576078;32;34865;-84
